Time;durP1;ratioP1;P1;durP2;ratioP2;P2;SDS_P1;SDS_P2;PMS_P1;PMS_P2;Temp;Humidity;BMP_temperature;BMP_pressure;BME280_temperature;BME280_humidity;BME280_pressure;Samples;Min_cycle;Max_cycle;Signal;HPM_P1;HPM_P2
2022/06/01 00:00:23;;;;;;;4.30;4.00;;;;;;;11.24;81.95;100709.69;4946702;28;20344;-71
2022/06/01 00:02:48;;;;;;;4.07;3.67;;;;;;;11.14;82.07;100706.22;4967535;28;20040;-71
2022/06/01 00:05:14;;;;;;;4.00;3.80;;;;;;;11.16;82.62;100698.97;4963536;28;20264;-70
2022/06/01 00:07:39;;;;;;;3.92;3.63;;;;;;;10.93;83.12;100687.84;4946248;28;20117;-71
2022/06/01 00:10:05;;;;;;;3.70;3.50;;;;;;;10.88;82.84;100690.91;4945604;28;20201;-71
2022/06/01 00:12:30;;;;;;;3.78;3.00;;;;;;;10.87;82.99;100681.31;4964349;28;20015;-72
2022/06/01 00:14:56;;;;;;;4.00;3.22;;;;;;;10.88;83.03;100685.59;4957884;28;20042;-71
2022/06/01 00:17:21;;;;;;;3.20;3.00;;;;;;;10.76;82.64;100684.94;4949625;28;20022;-71
2022/06/01 00:19:47;;;;;;;3.33;3.05;;;;;;;10.52;83.83;100687.97;4926476;28;20046;-71
2022/06/01 00:22:12;;;;;;;3.53;3.22;;;;;;;10.48;84.28;100691.88;4925563;28;20030;-71
2022/06/01 00:24:39;;;;;;;6.18;3.10;;;;;;;10.40;84.26;100686.44;4926798;28;20025;-71
2022/06/01 00:27:07;;;;;;;3.10;3.00;;;;;;;10.42;83.43;100685.31;4925620;28;20523;-71
2022/06/01 00:29:33;;;;;;;3.58;3.20;;;;;;;10.21;83.46;100682.75;4910626;28;20150;-71
2022/06/01 00:31:58;;;;;;;5.30;3.03;;;;;;;10.19;83.92;100683.84;4928037;28;20766;-70
2022/06/01 00:34:23;;;;;;;3.40;3.20;;;;;;;10.14;83.61;100682.44;4930253;28;20558;-70
2022/06/01 00:36:49;;;;;;;3.22;3.13;;;;;;;10.07;84.13;100675.22;4928176;28;20031;-71
2022/06/01 00:39:14;;;;;;;3.55;3.35;;;;;;;10.01;83.85;100683.66;4929508;28;20715;-71
2022/06/01 00:41:40;;;;;;;3.45;3.25;;;;;;;10.03;83.76;100682.56;4947946;28;20011;-71
2022/06/01 00:44:05;;;;;;;3.78;3.47;;;;;;;10.01;84.48;100687.16;4933551;28;20031;-70
2022/06/01 00:46:30;;;;;;;3.40;3.20;;;;;;;10.03;84.01;100684.38;4964859;28;20801;-71
2022/06/01 00:48:58;;;;;;;3.90;3.55;;;;;;;10.00;84.03;100687.25;4959443;28;20027;-70
2022/06/01 00:51:25;;;;;;;3.80;3.50;;;;;;;10.02;84.16;100682.69;4942158;28;20444;-71
2022/06/01 00:53:51;;;;;;;3.75;3.45;;;;;;;10.04;84.60;100683.38;4919502;28;20481;-70
2022/06/01 00:56:20;;;;;;;3.90;3.60;;;;;;;10.06;84.35;100692.03;4951626;28;20831;-72
2022/06/01 00:58:45;;;;;;;3.83;3.63;;;;;;;10.13;83.81;100690.53;4952942;28;20019;-72
2022/06/01 01:01:13;;;;;;;4.00;3.80;;;;;;;10.06;84.02;100694.69;4934015;28;20182;-72
2022/06/01 01:03:40;;;;;;;3.60;3.40;;;;;;;10.07;84.29;100685.78;4952169;28;20035;-70
2022/06/01 01:06:28;;;;;;;4.00;3.70;;;;;;;10.01;83.94;100687.16;4936120;28;20007;-70
2022/06/01 01:08:54;;;;;;;3.78;3.58;;;;;;;9.90;84.48;100695.16;4951385;28;20038;-70
2022/06/01 01:11:25;;;;;;;3.72;3.58;;;;;;;9.85;84.31;100698.22;4952486;28;20019;-70
2022/06/01 01:13:50;;;;;;;3.47;3.28;;;;;;;9.83;84.18;100700.16;4961502;28;20038;-71
2022/06/01 01:16:16;;;;;;;3.90;3.45;;;;;;;9.74;84.14;100701.81;4965300;28;20106;-70
2022/06/01 01:18:43;;;;;;;3.58;3.38;;;;;;;9.77;84.82;100696.25;4955354;28;20804;-70
2022/06/01 01:21:47;;;;;;;4.00;3.80;;;;;;;9.75;84.18;100700.81;4940566;28;20049;-70
2022/06/01 01:24:15;;;;;;;3.60;3.45;;;;;;;9.71;84.19;100701.22;4970017;28;20031;-71
2022/06/01 01:26:43;;;;;;;3.75;3.55;;;;;;;9.74;83.93;100698.31;4957369;28;20180;-72
2022/06/01 01:29:09;;;;;;;3.78;3.47;;;;;;;9.74;84.89;100700.94;4932867;28;20126;-71
2022/06/01 01:31:34;;;;;;;4.03;3.80;;;;;;;9.65;84.58;100691.19;4932752;28;20011;-71
2022/06/01 01:34:00;;;;;;;4.80;4.40;;;;;;;9.56;85.47;100688.38;4933895;28;20875;-70
2022/06/01 01:36:28;;;;;;;4.00;3.80;;;;;;;9.59;84.60;100696.03;4938024;28;21024;-72
2022/06/01 01:39:13;;;;;;;4.05;3.80;;;;;;;9.64;85.20;100685.03;4949368;28;20041;-73
2022/06/01 01:41:43;;;;;;;3.85;3.70;;;;;;;9.54;85.25;100685.00;4935327;28;20019;-72
2022/06/01 01:44:25;;;;;;;5.07;4.43;;;;;;;9.55;85.16;100691.13;4946226;28;20103;-72
2022/06/01 01:46:51;;;;;;;6.03;4.90;;;;;;;9.56;85.31;100685.72;4913594;28;20617;-72
2022/06/01 01:49:18;;;;;;;4.53;4.13;;;;;;;9.53;85.20;100683.34;4929461;28;20863;-72
2022/06/01 01:51:43;;;;;;;4.00;3.80;;;;;;;9.76;84.91;100680.53;4931059;28;20036;-72
2022/06/01 01:54:26;;;;;;;4.78;4.13;;;;;;;9.62;85.79;100681.72;4946004;28;20023;-72
2022/06/01 01:57:24;;;;;;;4.10;3.90;;;;;;;9.60;85.73;100683.63;4962570;28;20117;-72
2022/06/01 02:00:06;;;;;;;4.25;3.85;;;;;;;9.66;85.23;100687.56;4948982;28;20018;-71
2022/06/01 02:02:35;;;;;;;4.28;3.97;;;;;;;9.53;85.10;100688.63;4944852;28;19999;-72
2022/06/01 02:07:56;;;;;;;4.15;3.92;;;;;;;9.48;85.43;100685.53;4967429;28;20121;-71
2022/06/01 02:13:05;;;;;;;4.05;3.85;;;;;;;9.48;84.90;100696.09;4951153;28;20774;-71
2022/06/01 02:15:34;;;;;;;4.07;3.78;;;;;;;9.43;84.43;100687.72;4960388;28;20022;-71
2022/06/01 02:18:03;;;;;;;3.90;3.60;;;;;;;9.60;83.92;100692.41;4910676;28;20483;-71
2022/06/01 02:20:40;;;;;;;3.80;3.67;;;;;;;9.33;84.72;100687.66;4910797;28;20115;-71
2022/06/01 02:23:06;;;;;;;4.00;3.70;;;;;;;9.30;84.96;100685.28;4894705;28;20091;-71
2022/06/01 02:25:31;;;;;;;4.20;4.00;;;;;;;9.27;84.66;100689.03;4925074;28;20743;-71
2022/06/01 02:27:58;;;;;;;4.40;3.90;;;;;;;9.27;84.91;100690.84;4924251;28;20012;-71
2022/06/01 02:30:24;;;;;;;4.10;3.90;;;;;;;9.37;84.44;100690.91;4907668;28;20090;-71
2022/06/01 02:32:50;;;;;;;3.83;3.63;;;;;;;9.28;84.23;100687.25;4926475;28;20392;-70
2022/06/01 02:35:18;;;;;;;4.13;3.85;;;;;;;9.23;84.64;100689.41;4910349;28;20014;-71
2022/06/01 02:37:45;;;;;;;4.25;3.95;;;;;;;9.24;84.69;100694.56;4909562;28;20015;-71
2022/06/01 02:40:13;;;;;;;4.60;4.20;;;;;;;9.18;85.17;100681.03;4911249;28;20039;-71
2022/06/01 02:42:51;;;;;;;4.40;4.10;;;;;;;9.17;85.09;100693.41;4910413;28;20023;-71
2022/06/01 02:45:20;;;;;;;4.72;4.32;;;;;;;9.09;85.37;100690.56;4923588;28;20080;-71
2022/06/01 02:47:46;;;;;;;4.35;4.03;;;;;;;9.18;85.34;100697.75;4952017;28;20015;-71
2022/06/01 02:50:17;;;;;;;4.22;4.03;;;;;;;9.26;84.77;100694.44;4947068;28;20026;-71
2022/06/01 02:52:42;;;;;;;3.80;3.60;;;;;;;9.28;84.25;100703.09;4944741;28;20775;-71
2022/06/01 02:55:08;;;;;;;4.30;3.90;;;;;;;9.20;83.90;100706.34;4928517;28;20033;-72
2022/06/01 02:57:34;;;;;;;3.88;3.58;;;;;;;9.26;83.90;100707.63;4931231;28;20100;-71
2022/06/01 03:00:00;;;;;;;3.80;3.60;;;;;;;9.41;83.21;100716.09;4929788;28;20676;-70
2022/06/01 03:02:25;;;;;;;3.90;3.70;;;;;;;9.23;83.19;100703.44;4910368;28;20006;-71
2022/06/01 03:04:51;;;;;;;3.63;3.30;;;;;;;9.13;83.48;100712.28;4930595;28;20015;-71
2022/06/01 03:07:16;;;;;;;3.83;3.60;;;;;;;8.99;84.05;100710.78;4933785;28;19999;-72
2022/06/01 03:09:42;;;;;;;5.05;3.60;;;;;;;9.09;84.29;100717.84;4944384;28;20043;-70
2022/06/01 03:12:09;;;;;;;3.60;3.40;;;;;;;9.11;83.07;100715.06;4928857;28;20320;-72
2022/06/01 03:14:36;;;;;;;3.63;3.33;;;;;;;9.20;82.80;100708.16;4970642;28;20009;-70
2022/06/01 03:17:03;;;;;;;3.92;3.47;;;;;;;8.85;84.07;100709.28;4961267;28;20817;-70
2022/06/01 03:19:28;;;;;;;3.75;3.45;;;;;;;8.83;84.18;100712.06;4939712;28;20681;-70
2022/06/01 03:21:53;;;;;;;3.75;3.55;;;;;;;8.95;83.97;100718.13;4935908;28;20037;-72
2022/06/01 03:24:20;;;;;;;3.63;3.33;;;;;;;8.96;83.17;100727.72;4948536;28;20411;-71
2022/06/01 03:26:46;;;;;;;3.88;3.60;;;;;;;8.94;83.22;100730.50;4917723;28;20055;-71
2022/06/01 03:29:11;;;;;;;3.55;3.45;;;;;;;8.82;83.34;100725.38;4928051;28;20146;-71
2022/06/01 03:31:36;;;;;;;4.38;3.80;;;;;;;8.93;82.94;100727.97;4926124;28;20011;-70
2022/06/01 03:34:02;;;;;;;3.95;3.65;;;;;;;8.76;83.55;100721.44;4912041;28;20034;-71
2022/06/01 03:36:27;;;;;;;3.80;3.50;;;;;;;8.83;83.25;100722.63;4931017;28;20460;-71
2022/06/01 03:38:53;;;;;;;3.53;3.33;;;;;;;8.88;82.61;100732.78;4927504;28;20043;-71
2022/06/01 03:41:19;;;;;;;4.10;3.80;;;;;;;8.79;83.83;100725.63;4931961;28;20022;-72
2022/06/01 03:46:31;;;;;;;3.85;3.65;;;;;;;8.62;83.99;100727.84;4965757;28;20715;-70
2022/06/01 03:48:57;;;;;;;4.05;3.75;;;;;;;8.65;84.33;100729.41;4973945;28;20126;-71
2022/06/01 03:51:24;;;;;;;4.03;3.72;;;;;;;8.58;84.23;100734.31;4979155;28;20185;-71
2022/06/01 03:53:49;;;;;;;3.85;3.58;;;;;;;8.53;83.95;100734.72;4951548;28;20041;-71
2022/06/01 03:56:15;;;;;;;4.00;3.78;;;;;;;8.53;84.32;100733.84;4943530;28;20027;-71
2022/06/01 03:58:40;;;;;;;3.42;3.25;;;;;;;8.46;84.60;100730.88;4962324;28;20029;-71
2022/06/01 04:01:06;;;;;;;3.65;3.50;;;;;;;8.55;84.38;100731.94;4959728;28;20224;-72
2022/06/01 04:03:32;;;;;;;3.55;3.45;;;;;;;8.51;84.63;100735.78;4950049;28;20266;-73
2022/06/01 04:05:57;;;;;;;3.85;3.55;;;;;;;8.44;84.95;100732.75;4961212;28;20022;-73
2022/06/01 04:08:22;;;;;;;3.92;3.60;;;;;;;8.48;85.31;100741.31;4962402;28;20045;-74
2022/06/01 04:10:49;;;;;;;3.55;3.35;;;;;;;8.53;84.23;100741.75;4963141;28;20030;-72
2022/06/01 04:13:14;;;;;;;4.45;3.60;;;;;;;8.48;84.64;100744.78;4975251;28;20852;-73
2022/06/01 04:15:40;;;;;;;3.90;3.70;;;;;;;8.50;84.67;100745.50;4983188;28;20019;-73
2022/06/01 04:18:05;;;;;;;3.47;3.38;;;;;;;8.59;84.43;100749.19;4937476;28;20545;-72
2022/06/01 04:20:31;;;;;;;3.92;3.55;;;;;;;8.52;84.43;100746.22;4932689;28;20015;-72
2022/06/01 04:22:57;;;;;;;3.70;3.50;;;;;;;8.53;84.29;100739.97;4913363;28;20042;-74
2022/06/01 04:25:23;;;;;;;3.78;3.58;;;;;;;8.53;84.06;100744.41;4910894;28;20832;-73
2022/06/01 04:27:48;;;;;;;3.55;3.35;;;;;;;8.53;84.78;100753.16;4912823;28;20012;-73
2022/06/01 04:30:15;;;;;;;3.70;3.33;;;;;;;8.47;85.03;100748.38;4938269;28;20031;-73
2022/06/01 04:32:41;;;;;;;3.70;3.40;;;;;;;8.52;85.02;100743.56;4937421;28;19996;-72
2022/06/01 04:35:07;;;;;;;3.95;3.40;;;;;;;8.60;85.28;100758.75;4946125;28;20981;-74
2022/06/01 04:37:32;;;;;;;3.83;3.50;;;;;;;8.63;84.82;100758.53;4927208;28;20034;-73
2022/06/01 04:39:58;;;;;;;3.70;3.50;;;;;;;8.69;84.80;100755.41;4908108;28;20039;-72
2022/06/01 04:42:23;;;;;;;3.25;3.15;;;;;;;8.85;83.83;100757.63;4942932;28;20018;-72
2022/06/01 04:44:48;;;;;;;3.42;3.13;;;;;;;8.92;83.89;100756.16;4960172;28;20025;-72
2022/06/01 04:47:14;;;;;;;3.25;3.05;;;;;;;8.96;83.70;100759.38;4913296;28;20244;-72
2022/06/01 04:49:39;;;;;;;3.22;3.13;;;;;;;9.10;83.84;100760.91;4909339;28;20054;-72
2022/06/01 04:52:05;;;;;;;3.38;3.28;;;;;;;9.05;84.07;100753.38;4926283;28;20003;-73
2022/06/01 04:54:30;;;;;;;3.15;2.95;;;;;;;9.06;84.17;100748.91;4942771;28;20142;-73
2022/06/01 04:56:56;;;;;;;3.00;2.80;;;;;;;9.09;85.15;100759.22;4942968;28;20005;-72
2022/06/01 04:59:21;;;;;;;3.40;3.20;;;;;;;9.32;84.49;100753.81;4964671;28;19999;-72
2022/06/01 05:01:46;;;;;;;3.40;3.20;;;;;;;9.35;83.92;100758.84;4947290;28;20255;-73
2022/06/01 05:04:12;;;;;;;4.38;3.20;;;;;;;9.31;84.37;100760.91;4941800;28;20011;-72
2022/06/01 05:06:38;;;;;;;3.65;3.22;;;;;;;9.31;85.19;100757.41;4906165;28;20117;-74
2022/06/01 05:09:03;;;;;;;3.30;3.10;;;;;;;9.54;84.50;100751.03;4927252;28;20099;-73
2022/06/01 05:11:28;;;;;;;3.42;3.10;;;;;;;9.62;84.29;100758.34;4938071;28;20825;-73
2022/06/01 05:13:54;;;;;;;4.68;3.17;;;;;;;9.63;84.43;100749.41;4965642;28;20325;-73
2022/06/01 05:16:19;;;;;;;3.17;2.97;;;;;;;9.67;84.96;100752.66;4943333;28;20304;-73
2022/06/01 05:18:45;;;;;;;3.38;3.08;;;;;;;9.77;85.34;100761.47;4925903;28;20021;-73
2022/06/01 05:21:10;;;;;;;3.67;3.15;;;;;;;9.95;85.30;100754.59;4925537;28;20102;-73
2022/06/01 05:23:35;;;;;;;3.90;3.70;;;;;;;10.03;84.97;100753.13;4928729;28;20019;-73
2022/06/01 05:26:01;;;;;;;3.72;3.42;;;;;;;10.12;85.12;100757.59;4951545;28;20308;-74
2022/06/01 05:28:28;;;;;;;4.20;3.92;;;;;;;10.26;84.63;100765.16;4946635;28;20466;-73
2022/06/01 05:30:58;;;;;;;4.75;3.90;;;;;;;10.37;84.98;100755.47;4921656;28;20030;-73
2022/06/01 05:33:23;;;;;;;4.15;3.83;;;;;;;10.45;84.71;100751.19;4925895;28;20030;-73
2022/06/01 05:35:49;;;;;;;4.50;4.20;;;;;;;10.64;83.02;100760.94;4949862;28;20099;-73
2022/06/01 05:38:14;;;;;;;5.03;4.57;;;;;;;10.83;82.98;100752.22;4947135;28;20288;-73
2022/06/01 05:40:39;;;;;;;4.40;4.00;;;;;;;10.85;82.70;100759.19;4934251;28;20015;-74
2022/06/01 05:43:12;;;;;;;7.65;4.65;;;;;;;10.86;80.55;100758.19;4923950;28;20026;-73
2022/06/01 05:45:38;;;;;;;4.50;4.20;;;;;;;11.02;81.88;100766.44;4950999;28;20109;-72
2022/06/01 05:48:04;;;;;;;5.05;4.60;;;;;;;11.14;78.92;100764.50;4928702;28;20027;-73
2022/06/01 05:50:29;;;;;;;5.47;4.97;;;;;;;11.25;78.47;100760.84;4942795;28;20399;-72
2022/06/01 05:52:55;;;;;;;5.32;4.55;;;;;;;11.43;78.10;100766.28;4947147;28;20022;-73
2022/06/01 05:55:20;;;;;;;4.93;4.43;;;;;;;11.56;78.38;100760.66;4944640;28;20057;-73
2022/06/01 05:57:46;;;;;;;4.68;4.28;;;;;;;11.57;76.30;100754.41;4927054;28;20026;-74
2022/06/01 06:00:16;;;;;;;4.68;4.20;;;;;;;11.73;76.18;100761.72;4943523;28;20015;-73
2022/06/01 06:02:41;;;;;;;5.15;4.20;;;;;;;11.76;74.60;100772.91;4933396;28;20018;-73
2022/06/01 06:07:51;;;;;;;5.68;4.65;;;;;;;11.96;73.69;100770.22;4948860;28;20017;-72
2022/06/01 06:10:17;;;;;;;5.30;4.60;;;;;;;12.02;73.40;100775.75;4946761;28;20042;-73
2022/06/01 06:12:42;;;;;;;4.00;3.75;;;;;;;11.98;72.84;100777.03;4948263;28;20306;-73
2022/06/01 06:15:09;;;;;;;3.30;3.00;;;;;;;12.13;71.51;100776.56;4913564;28;20026;-73
2022/06/01 06:17:35;;;;;;;5.65;3.60;;;;;;;12.17;71.23;100777.97;4963032;28;20025;-73
2022/06/01 06:20:00;;;;;;;5.68;3.80;;;;;;;12.26;71.05;100781.53;4971483;28;20311;-73
2022/06/01 06:22:25;;;;;;;6.63;3.42;;;;;;;12.28;71.63;100780.41;4935869;28;19999;-73
2022/06/01 06:24:51;;;;;;;3.50;3.20;;;;;;;12.35;72.24;100786.81;4968510;28;20911;-73
2022/06/01 06:27:16;;;;;;;4.65;3.08;;;;;;;12.31;70.39;100780.13;4965352;28;20003;-72
2022/06/01 06:29:42;;;;;;;3.70;3.17;;;;;;;12.39;70.06;100781.19;4965426;28;20936;-73
2022/06/01 06:32:07;;;;;;;3.90;3.13;;;;;;;12.57;70.30;100778.59;4949281;28;20025;-72
2022/06/01 06:34:33;;;;;;;4.47;3.42;;;;;;;12.58;70.29;100780.22;4967898;28;20019;-72
2022/06/01 06:36:58;;;;;;;3.33;2.78;;;;;;;12.60;69.40;100781.75;4969234;28;20250;-72
2022/06/01 06:39:23;;;;;;;4.45;2.78;;;;;;;12.74;68.28;100779.59;4934205;28;20034;-72
2022/06/01 06:41:49;;;;;;;7.00;3.10;;;;;;;12.80;69.06;100776.31;4968279;28;20873;-72
2022/06/01 06:44:14;;;;;;;10.32;2.85;;;;;;;12.95;67.38;100781.97;4966365;28;20378;-73
2022/06/01 06:46:39;;;;;;;6.75;2.72;;;;;;;12.86;68.05;100770.41;4952984;28;20075;-72
2022/06/01 06:49:05;;;;;;;3.47;2.63;;;;;;;13.02;68.99;100778.53;4934870;28;20877;-73
2022/06/01 06:51:31;;;;;;;5.18;2.45;;;;;;;13.11;67.43;100779.44;4955751;28;20319;-73
2022/06/01 06:53:56;;;;;;;6.32;2.90;;;;;;;13.30;66.80;100770.47;4960829;28;20035;-73
2022/06/01 06:56:22;;;;;;;5.53;2.88;;;;;;;13.44;65.35;100784.22;4938319;28;20486;-73
2022/06/01 06:58:48;;;;;;;6.55;2.42;;;;;;;13.70;64.40;100777.09;4913387;28;20031;-74
2022/06/01 07:01:13;;;;;;;6.25;2.78;;;;;;;13.87;64.38;100778.03;4930050;28;20548;-74
2022/06/01 07:03:38;;;;;;;5.57;2.72;;;;;;;13.97;63.30;100775.25;4932890;28;20845;-74
2022/06/01 07:06:12;;;;;;;3.97;2.20;;;;;;;14.03;62.93;100779.97;4913377;28;20176;-73
2022/06/01 07:08:42;;;;;;;3.85;2.22;;;;;;;14.00;62.61;100780.28;4932479;28;20066;-73
2022/06/01 07:11:08;;;;;;;3.60;2.15;;;;;;;14.19;62.31;100787.19;4913756;28;20510;-73
2022/06/01 07:13:33;;;;;;;4.45;2.08;;;;;;;14.30;62.14;100788.72;4914807;28;20027;-72
2022/06/01 07:16:16;;;;;;;2.20;1.65;;;;;;;14.51;60.55;100779.47;4925799;28;20703;-73
2022/06/01 07:18:43;;;;;;;2.50;2.00;;;;;;;14.65;61.09;100786.88;4931717;28;20495;-72
2022/06/01 07:21:08;;;;;;;4.65;2.10;;;;;;;14.69;62.17;100796.22;4915979;28;20133;-73
2022/06/01 07:23:35;;;;;;;4.32;2.20;;;;;;;14.52;60.90;100803.28;4932560;28;20951;-72
2022/06/01 07:26:00;;;;;;;4.38;2.20;;;;;;;14.66;61.32;100803.69;4919519;28;20053;-74
2022/06/01 07:28:26;;;;;;;3.05;2.40;;;;;;;14.77;61.31;100801.56;4935532;28;20046;-74
2022/06/01 07:30:56;;;;;;;2.35;2.05;;;;;;;14.87;60.45;100800.59;4951074;28;20010;-73
2022/06/01 07:33:22;;;;;;;3.75;1.95;;;;;;;14.94;58.96;100798.94;4975941;28;20053;-73
2022/06/01 07:35:47;;;;;;;4.90;2.30;;;;;;;14.94;59.33;100801.59;4935645;28;20811;-73
2022/06/01 07:43:41;;;;;;;2.97;2.50;;;;;;;14.80;59.85;100821.72;4961989;28;20080;-74
2022/06/01 07:46:06;;;;;;;7.35;2.20;;;;;;;14.80;60.33;100812.88;4961488;28;20022;-73
2022/06/01 07:48:33;;;;;;;3.13;2.20;;;;;;;14.98;59.17;100802.94;4956516;28;20209;-73
2022/06/01 07:50:58;;;;;;;2.25;1.88;;;;;;;14.81;59.84;100806.56;4970265;28;20015;-73
2022/06/01 07:53:24;;;;;;;3.97;1.90;;;;;;;14.91;58.60;100809.91;4932411;28;20141;-73
2022/06/01 07:55:49;;;;;;;4.80;1.80;;;;;;;14.90;58.84;100809.06;4952374;28;20540;-73
2022/06/01 07:58:14;;;;;;;2.20;1.67;;;;;;;14.99;57.60;100798.44;4967231;28;20099;-72
2022/06/01 08:00:40;;;;;;;5.60;2.00;;;;;;;14.86;58.64;100818.41;4924171;28;20034;-73
2022/06/01 08:03:12;;;;;;;3.85;1.80;;;;;;;14.73;58.02;100820.69;4929595;28;20023;-73
2022/06/01 08:05:37;;;;;;;5.53;2.00;;;;;;;14.90;58.59;100817.06;4945025;28;20025;-72
2022/06/01 08:08:02;;;;;;;3.80;2.08;;;;;;;15.06;57.36;100818.09;4928360;28;20023;-73
2022/06/01 08:10:28;;;;;;;2.08;1.83;;;;;;;15.08;57.97;100830.25;4941143;28;20081;-73
2022/06/01 08:13:09;;;;;;;3.00;2.03;;;;;;;14.99;57.34;100820.59;4911862;28;20019;-73
2022/06/01 08:15:45;;;;;;;3.15;1.70;;;;;;;14.76;59.40;100820.38;4938458;28;20015;-73
2022/06/01 08:18:12;;;;;;;1.77;1.42;;;;;;;14.92;59.25;100815.09;4963305;28;20029;-73
2022/06/01 08:20:37;;;;;;;1.70;1.60;;;;;;;15.11;57.71;100818.44;4947186;28;20113;-73
2022/06/01 08:23:03;;;;;;;2.17;1.63;;;;;;;15.09;58.50;100821.28;4949700;28;20007;-73
2022/06/01 08:25:29;;;;;;;2.60;1.80;;;;;;;15.28;58.62;100822.81;4949776;28;20138;-73
2022/06/01 08:27:54;;;;;;;4.80;1.95;;;;;;;15.37;57.38;100826.31;4948444;28;20471;-73
2022/06/01 08:30:21;;;;;;;2.85;2.00;;;;;;;15.30;57.57;100822.63;4947110;28;20054;-74
2022/06/01 08:32:47;;;;;;;2.33;1.40;;;;;;;15.71;59.30;100816.44;4950229;28;20345;-74
2022/06/01 08:35:13;;;;;;;2.25;1.73;;;;;;;16.20;57.23;100824.38;4931649;28;20056;-73
2022/06/01 08:37:39;;;;;;;2.80;1.55;;;;;;;16.19;54.98;100827.19;4931377;28;20756;-73
2022/06/01 08:40:05;;;;;;;2.97;1.70;;;;;;;15.95;55.29;100834.28;4948002;28;20030;-73
2022/06/01 08:42:30;;;;;;;2.45;1.65;;;;;;;15.96;55.58;100827.94;4932402;28;20125;-73
2022/06/01 08:44:59;;;;;;;2.00;1.80;;;;;;;16.24;55.08;100832.88;4964996;28;20942;-73
2022/06/01 08:47:26;;;;;;;7.97;1.70;;;;;;;16.17;54.82;100830.03;4935264;28;20019;-73
2022/06/01 08:49:51;;;;;;;2.80;1.40;;;;;;;16.23;54.12;100833.88;4911291;28;20131;-72
2022/06/01 08:52:17;;;;;;;2.30;1.63;;;;;;;16.28;53.65;100821.66;4926060;28;20296;-73
2022/06/01 08:54:42;;;;;;;2.25;1.30;;;;;;;16.38;53.64;100834.00;4925676;28;20030;-73
2022/06/01 08:57:14;;;;;;;2.42;1.38;;;;;;;16.33;51.58;100833.66;4941334;28;20003;-73
2022/06/01 08:59:48;;;;;;;1.77;1.50;;;;;;;16.45;52.70;100832.28;4925968;28;20042;-73
2022/06/01 09:02:37;;;;;;;1.60;1.50;;;;;;;16.49;52.97;100833.59;4927596;28;20019;-72
2022/06/01 09:05:09;;;;;;;2.88;1.55;;;;;;;17.05;52.70;100838.00;4928133;28;20030;-73
2022/06/01 09:07:41;;;;;;;2.15;1.50;;;;;;;17.22;52.38;100828.03;4927936;28;20118;-73
2022/06/01 09:10:10;;;;;;;3.38;1.77;;;;;;;17.73;52.79;100830.13;4942614;28;20283;-73
2022/06/01 09:12:36;;;;;;;3.92;1.60;;;;;;;17.93;50.91;100830.47;4927305;28;20549;-73
2022/06/01 09:15:20;;;;;;;1.35;1.23;;;;;;;18.23;50.37;100831.28;4954565;28;20064;-73
2022/06/01 09:17:46;;;;;;;2.85;1.50;;;;;;;18.31;49.06;100828.53;4944025;28;20148;-74
2022/06/01 09:23:01;;;;;;;2.25;1.50;;;;;;;18.49;47.83;100840.72;4951066;28;20126;-75
2022/06/01 09:25:38;;;;;;;3.85;1.45;;;;;;;18.54;46.88;100835.63;4931234;28;20022;-72
2022/06/01 09:28:21;;;;;;;1.92;1.30;;;;;;;18.90;45.94;100825.97;4949215;28;20329;-73
2022/06/01 09:30:56;;;;;;;2.78;1.40;;;;;;;18.91;45.84;100832.97;4930585;28;20033;-73
2022/06/01 09:33:35;;;;;;;2.67;1.45;;;;;;;18.95;46.51;100834.25;4966198;28;20018;-72
2022/06/01 09:36:15;;;;;;;1.63;1.45;;;;;;;19.19;45.75;100831.22;4931285;28;20011;-73
2022/06/01 09:38:41;;;;;;;2.13;1.27;;;;;;;18.62;46.34;100826.66;4968407;28;20034;-73
2022/06/01 09:41:12;;;;;;;2.33;1.20;;;;;;;18.52;48.12;100819.72;4967597;28;20096;-73
2022/06/01 09:43:39;;;;;;;2.75;1.17;;;;;;;18.42;48.36;100819.19;4945517;28;20496;-73
2022/06/01 09:46:05;;;;;;;1.42;1.30;;;;;;;19.05;47.95;100818.72;4920935;28;20898;-72
2022/06/01 09:48:32;;;;;;;5.35;1.38;;;;;;;19.22;47.54;100816.59;4939731;28;20021;-74
2022/06/01 09:51:02;;;;;;;3.47;1.45;;;;;;;19.08;47.13;100823.69;4923905;28;20933;-73
2022/06/01 09:53:32;;;;;;;2.03;1.40;;;;;;;19.02;44.83;100825.28;4924196;28;20461;-73
2022/06/01 09:55:59;;;;;;;3.63;1.50;;;;;;;19.09;45.45;100819.16;4932735;28;20797;-74
2022/06/01 10:06:51;;;;;;;;;;;;;;;18.89;46.30;100827.81;4934768;28;20081;-73
2022/06/01 10:09:20;;;;;;;1.40;1.30;;;;;;;19.35;45.22;100823.94;4950555;28;19924;-73
2022/06/01 10:11:46;;;;;;;3.60;1.55;;;;;;;20.06;42.28;100826.53;4931013;28;20621;-73
2022/06/01 10:14:20;;;;;;;1.30;1.17;;;;;;;20.43;42.13;100820.94;4918963;28;20019;-73
2022/06/01 10:16:56;;;;;;;2.00;1.13;;;;;;;19.60;42.62;100812.78;4946540;28;20033;-74
2022/06/01 10:19:40;;;;;;;1.77;1.40;;;;;;;19.54;42.37;100817.91;4971509;28;20735;-73
2022/06/01 10:22:18;;;;;;;2.25;1.20;;;;;;;19.08;41.32;100830.88;4938670;28;20132;-73
2022/06/01 10:24:58;;;;;;;3.03;1.10;;;;;;;18.97;44.76;100826.88;4956527;28;20049;-74
2022/06/01 10:27:27;;;;;;;3.15;1.25;;;;;;;19.05;43.70;100827.56;4955710;28;20133;-72
2022/06/01 10:30:24;;;;;;;1.23;1.08;;;;;;;19.14;43.08;100822.91;4956457;28;20138;-73
2022/06/01 10:32:59;;;;;;;1.67;1.20;;;;;;;20.17;41.50;100827.03;4985408;28;20014;-73
2022/06/01 10:35:38;;;;;;;1.80;1.00;;;;;;;20.07;40.22;100830.06;4955220;28;20226;-72
2022/06/01 10:38:14;;;;;;;2.65;1.00;;;;;;;19.86;41.33;100826.41;4956331;28;20036;-73
2022/06/01 10:40:47;;;;;;;1.10;0.98;;;;;;;20.91;39.04;100826.34;4948684;28;20174;-73
2022/06/01 10:43:43;;;;;;;1.95;1.10;;;;;;;21.26;36.85;100834.25;4939681;28;20919;-72
2022/06/01 10:46:23;;;;;;;3.05;1.23;;;;;;;21.54;37.05;100835.94;4965235;28;20014;-74
2022/06/01 10:48:55;;;;;;;3.00;0.98;;;;;;;22.14;35.73;100832.34;4993926;28;20009;-74
2022/06/01 10:51:24;;;;;;;1.75;0.90;;;;;;;21.90;35.16;100832.00;4943620;28;20018;-73
2022/06/01 10:54:03;;;;;;;1.13;1.00;;;;;;;21.70;35.92;100823.09;4937517;28;20326;-73
2022/06/01 10:56:28;;;;;;;1.75;1.38;;;;;;;21.40;36.29;100831.56;4940474;28;20068;-73
2022/06/01 10:58:56;;;;;;;3.22;1.23;;;;;;;21.18;37.40;100833.59;4940461;28;20010;-74
2022/06/01 11:01:59;;;;;;;1.48;1.27;;;;;;;20.70;37.45;100821.06;4930743;28;20508;-74
2022/06/01 11:04:41;;;;;;;1.23;0.90;;;;;;;20.53;38.39;100823.25;4956235;28;20011;-73
2022/06/01 11:07:37;;;;;;;2.47;1.20;;;;;;;21.73;37.52;100823.53;4974632;28;20381;-74
2022/06/01 11:10:26;;;;;;;2.28;1.40;;;;;;;22.55;35.34;100825.81;4980185;28;20070;-74
2022/06/01 11:13:13;;;;;;;1.70;1.10;;;;;;;23.08;33.53;100831.94;4964668;28;20808;-74
2022/06/01 11:16:01;;;;;;;1.25;1.10;;;;;;;22.94;34.85;100823.94;4950398;28;20033;-74
2022/06/01 11:18:29;;;;;;;2.15;1.10;;;;;;;22.93;34.64;100825.00;4947654;28;20337;-74
2022/06/01 11:21:10;;;;;;;2.03;1.30;;;;;;;22.23;34.38;100809.50;4941464;28;20014;-74
2022/06/01 11:23:45;;;;;;;1.30;1.10;;;;;;;21.85;36.85;100822.88;4945829;28;20242;-74
2022/06/01 11:26:16;;;;;;;2.05;1.35;;;;;;;21.23;36.09;100826.56;4947263;28;20083;-74
2022/06/01 11:28:58;;;;;;;1.25;1.08;;;;;;;20.89;36.63;100835.63;4946256;28;20546;-74
2022/06/01 11:31:25;;;;;;;1.40;1.30;;;;;;;20.38;37.44;100829.63;4929042;28;20010;-74
2022/06/01 11:34:04;;;;;;;1.13;1.02;;;;;;;20.29;38.75;100832.66;4914017;28;20029;-73
2022/06/01 11:36:32;;;;;;;1.48;1.30;;;;;;;20.01;39.36;100825.47;4947637;28;20702;-74
2022/06/01 11:39:37;;;;;;;4.65;1.20;;;;;;;20.29;39.54;100830.84;4946950;28;20066;-74
2022/06/01 11:42:16;;;;;;;1.40;1.15;;;;;;;20.14;39.54;100828.25;4962746;28;20084;-73
2022/06/01 11:44:48;;;;;;;1.92;1.55;;;;;;;20.49;39.77;100828.22;4949285;28;20143;-73
2022/06/01 11:47:16;;;;;;;1.42;1.08;;;;;;;20.33;39.24;100832.06;4943757;28;20023;-72
2022/06/01 11:49:43;;;;;;;1.75;1.50;;;;;;;19.90;39.26;100833.06;4933923;28;20537;-73
2022/06/01 11:52:20;;;;;;;1.58;1.48;;;;;;;19.80;39.82;100829.06;4967099;28;20098;-73
2022/06/01 11:54:54;;;;;;;2.85;1.20;;;;;;;19.85;40.57;100830.13;4967019;28;20927;-73
2022/06/01 11:57:25;;;;;;;1.13;1.05;;;;;;;19.55;39.79;100829.47;4966302;28;20002;-73
2022/06/01 12:00:04;;;;;;;2.17;1.40;;;;;;;19.93;39.16;100821.09;4949199;28;20007;-73
2022/06/01 12:03:03;;;;;;;2.45;1.50;;;;;;;20.64;37.78;100816.50;4951942;28;20010;-73
2022/06/01 12:05:23;;;;;;;1.30;1.20;;;;;;;21.52;36.95;100816.50;4964242;28;20845;-73